Time,TemperatureF,DewpointF,PressureIn,WindDirection,WindDirectionDegrees,WindSpeedMPH,WindSpeedGustMPH,Humidity,HourlyPrecipIn,Conditions,Clouds,dailyrainin,SoftwareType,DateUTC
2013-11-19 00:00:00,74.4,70.3,29.90,SSW,202,0.0,0.0,87,0.00,,,0.06,Wunderground v.1.15,2013-11-19 05:00:00,
2013-11-19 00:05:00,74.4,70.3,29.90,SSW,202,0.0,0.0,87,0.00,,,0.06,Wunderground v.1.15,2013-11-19 05:05:00,
2013-11-19 00:10:00,74.4,70.3,29.90,SSW,202,0.0,0.0,87,0.00,,,0.06,Wunderground v.1.15,2013-11-19 05:10:00,
2013-11-19 00:15:00,74.4,70.3,29.90,SSW,202,0.0,0.0,87,0.00,,,0.06,Wunderground v.1.15,2013-11-19 05:15:00,
2013-11-19 00:20:00,74.4,70.6,29.90,SSW,207,0.0,0.0,88,0.00,,,0.00,Wunderground v.1.15,2013-11-19 05:20:00,
2013-11-19 00:25:00,74.3,70.5,29.90,SSW,206,0.0,0.0,88,0.00,,,0.00,Wunderground v.1.15,2013-11-19 05:25:00,
2013-11-19 00:30:00,74.3,70.5,29.90,SSE,167,0.0,0.0,88,0.00,,,0.00,Wunderground v.1.15,2013-11-19 05:30:00,
2013-11-19 00:35:00,74.3,70.5,29.90,SSE,167,0.0,0.0,88,0.00,,,0.00,Wunderground v.1.15,2013-11-19 05:35:00,
2013-11-19 00:40:00,74.3,70.5,29.89,South,175,0.0,0.0,88,0.00,,,0.00,Wunderground v.1.15,2013-11-19 05:40:00,
2013-11-19 00:45:00,74.2,70.4,29.89,South,175,0.0,0.0,88,0.00,,,0.00,Wunderground v.1.15,2013-11-19 05:45:00,
2013-11-19 00:50:00,74.2,70.4,29.89,South,175,0.0,0.0,88,0.00,,,0.00,Wunderground v.1.15,2013-11-19 05:50:00,
2013-11-19 00:55:00,74.2,70.4,29.89,SSW,211,0.0,0.0,88,0.00,,,0.00,Wunderground v.1.15,2013-11-19 05:55:00,
2013-11-19 01:00:00,74.2,70.4,29.89,SSW,208,0.0,0.0,88,0.00,,,0.00,Wunderground v.1.15,2013-11-19 06:00:00,
2013-11-19 01:05:00,74.2,70.7,29.89,SSW,207,0.0,1.0,89,0.00,,,0.00,Wunderground v.1.15,2013-11-19 06:05:00,
2013-11-19 01:10:00,74.2,70.7,29.89,SSW,207,0.0,0.0,89,0.00,,,0.00,Wunderground v.1.15,2013-11-19 06:10:00,
2013-11-19 01:15:00,74.2,70.7,29.89,SSW,208,0.0,0.0,89,0.00,,,0.00,Wunderground v.1.15,2013-11-19 06:15:00,
2013-11-19 01:20:00,74.1,70.6,29.88,SSW,195,0.0,0.0,89,0.00,,,0.00,Wunderground v.1.15,2013-11-19 06:20:00,
2013-11-19 01:25:00,74.1,70.6,29.88,SSW,195,0.0,0.0,89,0.00,,,0.00,Wunderground v.1.15,2013-11-19 06:25:00,
2013-11-19 01:30:00,74.0,70.6,29.88,SSW,195,0.0,0.0,89,0.00,,,0.00,Wunderground v.1.15,2013-11-19 06:30:00,
2013-11-19 01:40:00,73.8,70.4,29.88,SW,223,0.0,1.0,89,0.00,,,0.00,Wunderground v.1.15,2013-11-19 06:40:00,
2013-11-19 01:45:00,73.7,70.6,29.88,SW,230,0.0,1.0,90,0.00,,,0.00,Wunderground v.1.15,2013-11-19 06:45:00,
2013-11-19 01:50:00,73.6,70.5,29.88,SW,222,0.0,1.0,90,0.00,,,0.00,Wunderground v.1.15,2013-11-19 06:50:00,
2013-11-19 01:55:00,73.6,70.5,29.88,SW,222,0.0,1.0,90,0.00,,,0.00,Wunderground v.1.15,2013-11-19 06:55:00,
2013-11-19 02:00:00,73.5,70.4,29.88,SW,222,0.0,0.0,90,0.00,,,0.00,Wunderground v.1.15,2013-11-19 07:00:00,
2013-11-19 02:05:00,73.4,70.3,29.87,SW,222,0.0,0.0,90,0.00,,,0.00,Wunderground v.1.15,2013-11-19 07:05:00,
2013-11-19 02:10:00,73.3,70.5,29.87,SW,222,0.0,0.0,91,0.00,,,0.00,Wunderground v.1.15,2013-11-19 07:10:00,
2013-11-19 02:15:00,73.2,70.4,29.87,SW,222,0.0,0.0,91,0.00,,,0.00,Wunderground v.1.15,2013-11-19 07:15:00,
2013-11-19 02:20:00,73.1,70.3,29.87,SE,124,0.0,0.0,91,0.00,,,0.00,Wunderground v.1.15,2013-11-19 07:20:00,
2013-11-19 02:25:00,73.1,70.3,29.86,SE,124,0.0,0.0,91,0.00,,,0.00,Wunderground v.1.15,2013-11-19 07:25:00,
2013-11-19 02:30:00,73.0,70.2,29.86,SE,124,0.0,0.0,91,0.00,,,0.00,Wunderground v.1.15,2013-11-19 07:30:00,
2013-11-19 02:35:00,72.9,70.1,29.86,SE,124,0.0,1.0,91,0.00,,,0.00,Wunderground v.1.15,2013-11-19 07:35:00,
2013-11-19 02:40:00,72.7,70.2,29.86,SE,124,0.0,1.0,92,0.00,,,0.00,Wunderground v.1.15,2013-11-19 07:40:00,
2013-11-19 02:45:00,72.7,70.2,29.86,SE,124,0.0,1.0,92,0.00,,,0.00,Wunderground v.1.15,2013-11-19 07:45:00,
2013-11-19 02:50:00,72.7,70.2,29.86,SE,124,0.0,1.0,92,0.00,,,0.00,Wunderground v.1.15,2013-11-19 07:50:00,
2013-11-19 02:55:00,72.6,70.1,29.86,SE,124,0.0,1.0,92,0.00,,,0.00,Wunderground v.1.15,2013-11-19 07:55:00,
2013-11-19 03:00:00,72.5,70.4,29.86,SE,124,0.0,0.0,93,0.00,,,0.00,Wunderground v.1.15,2013-11-19 08:00:00,
2013-11-19 03:10:00,72.3,70.2,29.85,SE,124,0.0,0.0,93,0.00,,,0.00,Wunderground v.1.15,2013-11-19 08:10:00,
2013-11-19 03:15:00,72.1,70.0,29.85,SE,124,0.0,0.0,93,0.00,,,0.00,Wunderground v.1.15,2013-11-19 08:15:00,
2013-11-19 03:20:00,72.0,69.9,29.85,SE,124,0.0,0.0,93,0.00,,,0.00,Wunderground v.1.15,2013-11-19 08:20:00,
2013-11-19 03:25:00,72.0,69.9,29.85,SE,124,0.0,0.0,93,0.00,,,0.00,Wunderground v.1.15,2013-11-19 08:25:00,
2013-11-19 03:30:00,71.8,69.7,29.85,SE,124,0.0,0.0,93,0.00,,,0.00,Wunderground v.1.15,2013-11-19 08:30:00,
2013-11-19 03:35:00,71.8,70.0,29.85,SE,124,0.0,1.0,94,0.00,,,0.00,Wunderground v.1.15,2013-11-19 08:35:00,
2013-11-19 03:40:00,71.7,69.9,29.85,SE,124,0.0,1.0,94,0.00,,,0.00,Wunderground v.1.15,2013-11-19 08:40:00,
2013-11-19 03:45:00,71.6,69.8,29.85,SE,124,0.0,1.0,94,0.00,,,0.00,Wunderground v.1.15,2013-11-19 08:45:00,
2013-11-19 03:50:00,71.6,69.8,29.86,SE,124,0.0,1.0,94,0.00,,,0.00,Wunderground v.1.15,2013-11-19 08:50:00,
2013-11-19 03:55:00,71.5,69.7,29.86,SE,124,0.0,1.0,94,0.00,,,0.00,Wunderground v.1.15,2013-11-19 08:55:00,
2013-11-19 04:00:00,71.5,69.7,29.86,SE,124,0.0,0.0,94,0.00,,,0.00,Wunderground v.1.15,2013-11-19 09:00:00,
2013-11-19 04:05:00,71.4,69.6,29.86,SE,124,0.0,0.0,94,0.00,,,0.00,Wunderground v.1.15,2013-11-19 09:05:00,
2013-11-19 04:10:00,71.2,69.4,29.86,SE,124,0.0,0.0,94,0.00,,,0.00,Wunderground v.1.15,2013-11-19 09:10:00,
2013-11-19 04:15:00,71.2,69.7,29.86,SE,124,0.0,0.0,95,0.00,,,0.00,Wunderground v.1.15,2013-11-19 09:15:00,
2013-11-19 04:20:00,71.3,69.8,29.86,SE,129,0.0,0.0,95,0.00,,,0.00,Wunderground v.1.15,2013-11-19 09:20:00,
2013-11-19 04:25:00,71.3,69.8,29.85,SE,129,0.0,0.0,95,0.00,,,0.00,Wunderground v.1.15,2013-11-19 09:25:00,
2013-11-19 04:30:00,71.4,69.9,29.85,SE,129,0.0,0.0,95,0.00,,,0.00,Wunderground v.1.15,2013-11-19 09:30:00,
2013-11-19 04:35:00,71.5,70.0,29.85,SE,129,0.0,1.0,95,0.00,,,0.00,Wunderground v.1.15,2013-11-19 09:35:00,
2013-11-19 04:40:00,71.6,70.1,29.86,SSW,196,0.0,0.0,95,0.00,,,0.00,Wunderground v.1.15,2013-11-19 09:40:00,
2013-11-19 04:45:00,71.7,70.2,29.86,SSW,197,0.0,0.0,95,0.00,,,0.00,Wunderground v.1.15,2013-11-19 09:45:00,
2013-11-19 04:50:00,71.8,70.0,29.86,SSW,195,0.0,0.0,94,0.00,,,0.00,Wunderground v.1.15,2013-11-19 09:50:00,
2013-11-19 04:55:00,72.0,70.2,29.86,SW,229,0.0,0.0,94,0.00,,,0.00,Wunderground v.1.15,2013-11-19 09:55:00,
2013-11-19 05:00:00,72.1,70.3,29.86,West,259,0.0,0.0,94,0.00,,,0.00,Wunderground v.1.15,2013-11-19 10:00:00,
2013-11-19 05:10:00,72.4,70.6,29.86,West,262,0.0,1.0,94,0.00,,,0.00,Wunderground v.1.15,2013-11-19 10:10:00,
2013-11-19 05:15:00,72.6,70.8,29.86,WNW,294,0.0,1.0,94,0.00,,,0.00,Wunderground v.1.15,2013-11-19 10:15:00,
2013-11-19 05:20:00,72.7,70.6,29.86,SW,225,0.0,0.0,93,0.00,,,0.00,Wunderground v.1.15,2013-11-19 10:20:00,
2013-11-19 05:25:00,72.7,70.6,29.86,NW,314,0.0,0.0,93,0.00,,,0.00,Wunderground v.1.15,2013-11-19 10:25:00,
2013-11-19 05:30:00,72.7,70.6,29.86,North,355,0.0,1.0,93,0.00,,,0.00,Wunderground v.1.15,2013-11-19 10:30:00,
2013-11-19 05:35:00,72.7,70.6,29.86,ENE,72,0.0,1.0,93,0.00,,,0.00,Wunderground v.1.15,2013-11-19 10:35:00,
2013-11-19 05:40:00,72.7,70.6,29.86,NNE,15,0.0,2.0,93,0.00,,,0.00,Wunderground v.1.15,2013-11-19 10:40:00,
2013-11-19 05:45:00,72.7,70.6,29.86,ENE,66,0.0,2.0,93,0.00,,,0.00,Wunderground v.1.15,2013-11-19 10:45:00,
2013-11-19 05:50:00,72.6,70.5,29.87,ENE,77,1.0,1.0,93,0.00,,,0.00,Wunderground v.1.15,2013-11-19 10:50:00,
2013-11-19 05:55:00,72.6,70.5,29.86,SSE,159,0.0,1.0,93,0.00,,,0.00,Wunderground v.1.15,2013-11-19 10:55:00,
2013-11-19 06:00:00,72.6,70.5,29.86,SSE,167,0.0,0.0,93,0.00,,,0.00,Wunderground v.1.15,2013-11-19 11:00:00,
2013-11-19 06:05:00,72.5,70.4,29.87,SE,141,0.0,0.0,93,0.00,,,0.00,Wunderground v.1.15,2013-11-19 11:05:00,
2013-11-19 06:10:00,72.5,70.4,29.87,NE,51,0.0,1.0,93,0.00,,,0.00,Wunderground v.1.15,2013-11-19 11:10:00,
2013-11-19 06:15:00,72.4,70.3,29.87,ENE,60,0.0,1.0,93,0.00,,,0.00,Wunderground v.1.15,2013-11-19 11:15:00,
2013-11-19 06:20:00,72.4,70.3,29.87,SSE,162,0.0,1.0,93,0.00,,,0.00,Wunderground v.1.15,2013-11-19 11:20:00,
2013-11-19 06:25:00,72.5,70.4,29.87,SE,136,0.0,1.0,93,0.00,,,0.00,Wunderground v.1.15,2013-11-19 11:25:00,
2013-11-19 06:30:00,72.4,70.3,29.87,SSE,164,1.0,1.0,93,0.00,,,0.00,Wunderground v.1.15,2013-11-19 11:30:00,
2013-11-19 06:35:00,72.3,70.2,29.87,East,81,1.0,3.0,93,0.00,,,0.00,Wunderground v.1.15,2013-11-19 11:35:00,
2013-11-19 06:40:00,72.3,70.2,29.87,East,81,0.0,3.0,93,0.00,,,0.00,Wunderground v.1.15,2013-11-19 11:40:00,
2013-11-19 06:45:00,72.2,70.1,29.87,ENE,77,0.0,3.0,93,0.00,,,0.00,Wunderground v.1.15,2013-11-19 11:45:00,
2013-11-19 06:50:00,72.2,70.1,29.87,ENE,77,0.0,3.0,93,0.00,,,0.00,Wunderground v.1.15,2013-11-19 11:50:00,
2013-11-19 06:55:00,72.2,70.1,29.88,ENE,77,0.0,3.0,93,0.00,,,0.00,Wunderground v.1.15,2013-11-19 11:55:00,
2013-11-19 07:00:00,72.2,70.1,29.88,ENE,65,0.0,0.0,93,0.00,,,0.00,Wunderground v.1.15,2013-11-19 12:00:00,
2013-11-19 07:10:00,72.4,70.6,29.88,ENE,69,0.0,0.0,94,0.00,,,0.00,Wunderground v.1.15,2013-11-19 12:10:00,
2013-11-19 07:15:00,72.4,70.6,29.88,ENE,69,0.0,0.0,94,0.00,,,0.00,Wunderground v.1.15,2013-11-19 12:15:00,
2013-11-19 07:20:00,72.6,70.8,29.89,SSE,164,0.0,0.0,94,0.00,,,0.00,Wunderground v.1.15,2013-11-19 12:20:00,
2013-11-19 07:25:00,72.7,70.9,29.89,ENE,67,0.0,0.0,94,0.00,,,0.00,Wunderground v.1.15,2013-11-19 12:25:00,
2013-11-19 07:30:00,72.8,70.7,29.89,East,84,0.0,0.0,93,0.00,,,0.00,Wunderground v.1.15,2013-11-19 12:30:00,
2013-11-19 07:35:00,72.9,70.8,29.89,East,84,0.0,4.0,93,0.00,,,0.00,Wunderground v.1.15,2013-11-19 12:35:00,
2013-11-19 07:40:00,73.0,70.9,29.89,East,84,0.0,4.0,93,0.00,,,0.00,Wunderground v.1.15,2013-11-19 12:40:00,
2013-11-19 07:45:00,73.1,71.0,29.90,ENE,68,0.0,4.0,93,0.00,,,0.00,Wunderground v.1.15,2013-11-19 12:45:00,
2013-11-19 07:50:00,73.3,71.2,29.90,East,89,0.0,4.0,93,0.00,,,0.00,Wunderground v.1.15,2013-11-19 12:50:00,
2013-11-19 07:55:00,73.4,71.3,29.90,ESE,103,0.0,4.0,93,0.00,,,0.00,Wunderground v.1.15,2013-11-19 12:55:00,
2013-11-19 08:00:00,73.4,71.3,29.90,SSE,150,0.0,1.0,93,0.00,,,0.00,Wunderground v.1.15,2013-11-19 13:00:00,
2013-11-19 08:10:00,73.6,71.4,29.90,SSE,156,0.0,1.0,93,0.00,,,0.00,Wunderground v.1.15,2013-11-19 13:10:00,
2013-11-19 08:15:00,73.7,71.5,29.90,SSE,150,0.0,1.0,93,0.00,,,0.00,Wunderground v.1.15,2013-11-19 13:15:00,
2013-11-19 08:20:00,73.8,71.6,29.90,SSE,160,0.0,0.0,93,0.00,,,0.00,Wunderground v.1.15,2013-11-19 13:20:00,
2013-11-19 08:25:00,73.9,71.7,29.90,SSE,156,1.0,2.0,93,0.00,,,0.00,Wunderground v.1.15,2013-11-19 13:25:00,
2013-11-19 08:30:00,73.9,71.7,29.90,SSE,157,2.0,2.0,93,0.00,,,0.00,Wunderground v.1.15,2013-11-19 13:30:00,
2013-11-19 08:35:00,73.9,71.7,29.90,SE,145,2.0,3.0,93,0.00,,,0.00,Wunderground v.1.15,2013-11-19 13:35:00,
2013-11-19 08:40:00,73.9,71.7,29.90,South,184,2.0,3.0,93,0.00,,,0.00,Wunderground v.1.15,2013-11-19 13:40:00,
2013-11-19 08:45:00,74.0,72.2,29.90,SSE,167,2.0,3.0,94,0.00,,,0.00,Wunderground v.1.15,2013-11-19 13:45:00,
2013-11-19 08:50:00,74.1,71.9,29.91,SSE,165,2.0,4.0,93,0.00,,,0.00,Wunderground v.1.15,2013-11-19 13:50:00,
2013-11-19 08:55:00,74.1,71.9,29.91,SSE,167,2.0,4.0,93,0.00,,,0.00,Wunderground v.1.15,2013-11-19 13:55:00,
2013-11-19 09:00:00,74.2,72.0,29.91,South,179,3.0,4.0,93,0.00,,,0.00,Wunderground v.1.15,2013-11-19 14:00:00,
2013-11-19 09:10:00,74.5,72.3,29.91,South,185,3.0,3.0,93,0.00,,,0.00,Wunderground v.1.15,2013-11-19 14:10:00,
2013-11-19 09:15:00,74.7,72.2,29.91,South,181,3.0,3.0,92,0.00,,,0.00,Wunderground v.1.15,2013-11-19 14:15:00,
2013-11-19 09:20:00,74.7,72.2,29.91,South,174,3.0,4.0,92,0.00,,,0.00,Wunderground v.1.15,2013-11-19 14:20:00,
2013-11-19 09:25:00,74.8,72.3,29.91,South,174,4.0,5.0,92,0.00,,,0.00,Wunderground v.1.15,2013-11-19 14:25:00,
2013-11-19 09:30:00,74.9,72.1,29.91,SSE,165,4.0,4.0,91,0.00,,,0.00,Wunderground v.1.15,2013-11-19 14:30:00,
2013-11-19 09:35:00,75.1,72.3,29.91,SSW,207,3.0,4.0,91,0.00,,,0.00,Wunderground v.1.15,2013-11-19 14:35:00,
2013-11-19 09:40:00,75.6,72.5,29.91,SW,214,3.0,4.0,90,0.00,,,0.00,Wunderground v.1.15,2013-11-19 14:40:00,
2013-11-19 09:45:00,76.2,72.7,29.91,South,176,4.0,4.0,89,0.00,,,0.00,Wunderground v.1.15,2013-11-19 14:45:00,
2013-11-19 09:50:00,76.6,73.1,29.91,ESE,120,3.0,5.0,89,0.00,,,0.00,Wunderground v.1.15,2013-11-19 14:50:00,
2013-11-19 09:55:00,76.8,72.6,29.91,SSE,153,4.0,6.0,87,0.00,,,0.00,Wunderground v.1.15,2013-11-19 14:55:00,
2013-11-19 10:00:00,77.0,72.5,29.92,SSE,164,4.0,4.0,86,0.00,,,0.00,Wunderground v.1.15,2013-11-19 15:00:00,
2013-11-19 10:10:00,78.0,73.1,29.91,SE,129,3.0,4.0,85,0.00,,,0.00,Wunderground v.1.15,2013-11-19 15:10:00,
2013-11-19 10:15:00,78.0,73.1,29.91,ESE,106,4.0,4.0,85,0.00,,,0.00,Wunderground v.1.15,2013-11-19 15:15:00,
2013-11-19 10:20:00,78.1,73.2,29.91,ESE,113,4.0,4.0,85,0.00,,,0.00,Wunderground v.1.15,2013-11-19 15:20:00,
2013-11-19 10:25:00,78.6,73.4,29.91,ESE,111,3.0,8.0,84,0.00,,,0.00,Wunderground v.1.15,2013-11-19 15:25:00,
2013-11-19 10:30:00,78.4,72.8,29.91,ESE,110,5.0,8.0,83,0.00,,,0.00,Wunderground v.1.15,2013-11-19 15:30:00,
2013-11-19 10:35:00,78.6,72.6,29.91,SE,134,6.0,8.0,82,0.00,,,0.00,Wunderground v.1.15,2013-11-19 15:35:00,
2013-11-19 10:40:00,79.1,73.1,29.91,SSE,155,5.0,5.0,82,0.00,,,0.00,Wunderground v.1.15,2013-11-19 15:40:00,
2013-11-19 10:45:00,79.6,73.3,29.91,ESE,104,3.0,7.0,81,0.00,,,0.00,Wunderground v.1.15,2013-11-19 15:45:00,
2013-11-19 10:50:00,79.6,72.9,29.91,East,91,4.0,7.0,80,0.00,,,0.00,Wunderground v.1.15,2013-11-19 15:50:00,
2013-11-19 10:55:00,79.8,72.7,29.91,ESE,107,5.0,7.0,79,0.00,,,0.00,Wunderground v.1.15,2013-11-19 15:55:00,
2013-11-19 11:00:00,80.2,73.1,29.91,ESE,108,5.0,7.0,79,0.00,,,0.00,Wunderground v.1.15,2013-11-19 16:00:00,
2013-11-19 11:05:00,80.3,72.8,29.91,ESE,118,4.0,7.0,78,0.00,,,0.00,Wunderground v.1.15,2013-11-19 16:05:00,
2013-11-19 11:10:00,80.1,72.6,29.91,ESE,104,5.0,9.0,78,0.00,,,0.00,Wunderground v.1.15,2013-11-19 16:10:00,
2013-11-19 11:15:00,80.7,73.2,29.91,SE,125,4.0,9.0,78,0.00,,,0.00,Wunderground v.1.15,2013-11-19 16:15:00,
2013-11-19 11:20:00,81.1,73.6,29.90,SSE,155,3.0,3.0,78,0.00,,,0.00,Wunderground v.1.15,2013-11-19 16:20:00,
2013-11-19 11:25:00,81.2,73.3,29.90,ESE,119,2.0,4.0,77,0.00,,,0.00,Wunderground v.1.15,2013-11-19 16:25:00,
2013-11-19 11:30:00,80.9,73.4,29.90,ESE,116,3.0,3.0,78,0.00,,,0.00,Wunderground v.1.15,2013-11-19 16:30:00,
2013-11-19 11:35:00,80.9,73.8,29.90,ENE,75,4.0,4.0,79,0.00,,,0.00,Wunderground v.1.15,2013-11-19 16:35:00,
2013-11-19 11:40:00,81.3,73.0,29.90,East,99,3.0,10.0,76,0.00,,,0.00,Wunderground v.1.15,2013-11-19 16:40:00,
2013-11-19 11:45:00,81.3,73.4,29.89,ESE,108,4.0,10.0,77,0.00,,,0.00,Wunderground v.1.15,2013-11-19 16:45:00,
2013-11-19 11:50:00,81.7,73.0,29.89,East,91,3.0,10.0,75,0.00,,,0.00,Wunderground v.1.15,2013-11-19 16:50:00,
2013-11-19 11:55:00,81.5,73.6,29.89,East,86,3.0,10.0,77,0.00,,,0.00,Wunderground v.1.15,2013-11-19 16:55:00,
2013-11-19 12:00:00,82.1,73.0,29.88,East,98,4.0,4.0,74,0.00,,,0.00,Wunderground v.1.15,2013-11-19 17:00:00,
2013-11-19 12:10:00,82.1,71.8,29.88,East,101,3.0,3.0,71,0.00,,,0.00,Wunderground v.1.15,2013-11-19 17:10:00,
2013-11-19 12:15:00,82.4,72.9,29.88,ESE,102,2.0,4.0,73,0.00,,,0.00,Wunderground v.1.15,2013-11-19 17:15:00,
2013-11-19 12:20:00,82.6,71.0,29.87,ESE,102,3.0,3.0,68,0.00,,,0.00,Wunderground v.1.15,2013-11-19 17:20:00,
2013-11-19 12:25:00,83.0,71.8,29.87,ESE,120,4.0,6.0,69,0.00,,,0.00,Wunderground v.1.15,2013-11-19 17:25:00,
2013-11-19 12:30:00,83.2,72.0,29.87,ENE,67,3.0,3.0,69,0.00,,,0.00,Wunderground v.1.15,2013-11-19 17:30:00,
2013-11-19 12:35:00,83.1,71.9,29.86,ESE,104,3.0,7.0,69,0.00,,,0.00,Wunderground v.1.15,2013-11-19 17:35:00,
2013-11-19 12:40:00,82.9,71.3,29.86,ESE,106,5.0,5.0,68,0.00,,,0.00,Wunderground v.1.15,2013-11-19 17:40:00,
2013-11-19 12:45:00,83.0,71.8,29.86,ESE,105,6.0,6.0,69,0.00,,,0.00,Wunderground v.1.15,2013-11-19 17:45:00,
2013-11-19 12:50:00,83.8,73.0,29.86,ESE,119,5.0,5.0,70,0.00,,,0.00,Wunderground v.1.15,2013-11-19 17:50:00,
2013-11-19 12:55:00,83.9,72.6,29.86,East,84,4.0,14.0,69,0.00,,,0.00,Wunderground v.1.15,2013-11-19 17:55:00,
2013-11-19 13:00:00,83.0,71.3,29.86,ESE,108,5.0,5.0,68,0.00,,,0.00,Wunderground v.1.15,2013-11-19 18:00:00,
2013-11-19 13:05:00,82.9,72.5,29.86,East,94,5.0,5.0,71,0.00,,,0.00,Wunderground v.1.15,2013-11-19 18:05:00,
2013-11-19 13:10:00,83.0,72.2,29.85,ESE,107,4.0,4.0,70,0.00,,,0.00,Wunderground v.1.15,2013-11-19 18:10:00,
2013-11-19 13:15:00,83.2,72.4,29.85,East,88,4.0,7.0,70,0.00,,,0.00,Wunderground v.1.15,2013-11-19 18:15:00,
2013-11-19 13:20:00,82.8,72.4,29.85,East,89,4.0,4.0,71,0.00,,,0.00,Wunderground v.1.15,2013-11-19 18:20:00,
2013-11-19 13:25:00,83.2,73.6,29.85,East,94,4.0,4.0,73,0.00,,,0.00,Wunderground v.1.15,2013-11-19 18:25:00,
2013-11-19 13:30:00,83.5,72.7,29.85,East,98,3.0,4.0,70,0.00,,,0.00,Wunderground v.1.15,2013-11-19 18:30:00,
2013-11-19 13:35:00,83.7,72.4,29.84,East,95,3.0,12.0,69,0.00,,,0.00,Wunderground v.1.15,2013-11-19 18:35:00,
2013-11-19 13:40:00,83.7,72.0,29.84,East,82,4.0,12.0,68,0.00,,,0.00,Wunderground v.1.15,2013-11-19 18:40:00,
2013-11-19 13:45:00,83.4,72.2,29.84,ESE,109,5.0,12.0,69,0.00,,,0.00,Wunderground v.1.15,2013-11-19 18:45:00,
2013-11-19 13:50:00,83.7,72.4,29.84,East,94,5.0,5.0,69,0.00,,,0.00,Wunderground v.1.15,2013-11-19 18:50:00,
2013-11-19 13:55:00,83.7,72.9,29.84,ESE,105,5.0,6.0,70,0.00,,,0.00,Wunderground v.1.15,2013-11-19 18:55:00,
2013-11-19 14:00:00,83.2,71.1,29.84,ENE,69,5.0,5.0,67,0.00,,,0.00,Wunderground v.1.15,2013-11-19 19:00:00,
2013-11-19 14:05:00,83.1,71.0,29.83,East,90,6.0,7.0,67,0.00,,,0.00,Wunderground v.1.15,2013-11-19 19:05:00,
2013-11-19 14:10:00,82.9,71.7,29.83,ESE,110,6.0,6.0,69,0.00,,,0.00,Wunderground v.1.15,2013-11-19 19:10:00,
2013-11-19 14:15:00,83.2,71.5,29.83,East,88,5.0,6.0,68,0.00,,,0.00,Wunderground v.1.15,2013-11-19 19:15:00,
2013-11-19 14:20:00,83.2,71.5,29.83,ESE,104,5.0,8.0,68,0.00,,,0.00,Wunderground v.1.15,2013-11-19 19:20:00,
2013-11-19 14:25:00,83.0,71.8,29.83,ESE,113,5.0,8.0,69,0.00,,,0.00,Wunderground v.1.15,2013-11-19 19:25:00,
2013-11-19 14:30:00,82.9,72.1,29.83,East,86,5.0,5.0,70,0.00,,,0.00,Wunderground v.1.15,2013-11-19 19:30:00,
2013-11-19 14:35:00,83.1,71.9,29.83,ESE,103,5.0,13.0,69,0.00,,,0.00,Wunderground v.1.15,2013-11-19 19:35:00,
2013-11-19 14:40:00,84.1,71.5,29.83,SE,146,3.0,3.0,66,0.00,,,0.00,Wunderground v.1.15,2013-11-19 19:40:00,
2013-11-19 14:45:00,84.5,71.0,29.83,East,93,3.0,13.0,64,0.00,,,0.00,Wunderground v.1.15,2013-11-19 19:45:00,
2013-11-19 14:50:00,84.8,72.2,29.83,ESE,122,3.0,13.0,66,0.00,,,0.00,Wunderground v.1.15,2013-11-19 19:50:00,
2013-11-19 14:55:00,84.8,70.3,29.83,SE,124,3.0,13.0,62,0.00,,,0.00,Wunderground v.1.15,2013-11-19 19:55:00,
2013-11-19 15:00:00,84.7,71.2,29.83,SE,127,4.0,4.0,64,0.00,,,0.00,Wunderground v.1.15,2013-11-19 20:00:00,
2013-11-19 15:05:00,85.0,70.5,29.83,ESE,102,3.0,4.0,62,0.00,,,0.00,Wunderground v.1.15,2013-11-19 20:05:00,
2013-11-19 15:10:00,85.1,71.1,29.83,East,91,2.0,2.0,63,0.00,,,0.00,Wunderground v.1.15,2013-11-19 20:10:00,
2013-11-19 15:15:00,85.4,70.9,29.83,East,101,3.0,3.0,62,0.00,,,0.00,Wunderground v.1.15,2013-11-19 20:15:00,
2013-11-19 15:20:00,85.5,71.5,29.83,East,94,2.0,3.0,63,0.00,,,0.00,Wunderground v.1.15,2013-11-19 20:20:00,
2013-11-19 15:25:00,85.4,71.4,29.83,SW,217,1.0,3.0,63,0.00,,,0.00,Wunderground v.1.15,2013-11-19 20:25:00,
2013-11-19 15:30:00,84.8,73.9,29.83,SE,143,1.0,1.0,70,0.00,,,0.00,Wunderground v.1.15,2013-11-19 20:30:00,
2013-11-19 15:35:00,83.9,73.9,29.83,SSW,202,1.0,11.0,72,0.00,,,0.00,Wunderground v.1.15,2013-11-19 20:35:00,
2013-11-19 15:40:00,83.6,73.6,29.83,South,188,2.0,11.0,72,0.00,,,0.00,Wunderground v.1.15,2013-11-19 20:40:00,
2013-11-19 15:45:00,83.0,73.0,29.83,SSE,162,2.0,11.0,72,0.00,,,0.00,Wunderground v.1.15,2013-11-19 20:45:00,
2013-11-19 15:50:00,82.4,72.5,29.83,South,185,2.0,2.0,72,0.00,,,0.00,Wunderground v.1.15,2013-11-19 20:50:00,
2013-11-19 15:55:00,81.9,72.0,29.83,South,181,2.0,11.0,72,0.00,,,0.00,Wunderground v.1.15,2013-11-19 20:55:00,
2013-11-19 16:00:00,81.6,72.1,29.83,SSW,198,1.0,1.0,73,0.00,,,0.00,Wunderground v.1.15,2013-11-19 21:00:00,
2013-11-19 16:05:00,81.6,71.7,29.84,SSW,205,1.0,1.0,72,0.00,,,0.00,Wunderground v.1.15,2013-11-19 21:05:00,
2013-11-19 16:10:00,81.4,71.9,29.84,SW,233,1.0,2.0,73,0.00,,,0.00,Wunderground v.1.15,2013-11-19 21:10:00,
2013-11-19 16:15:00,81.2,71.7,29.84,SE,136,1.0,2.0,73,0.00,,,0.00,Wunderground v.1.15,2013-11-19 21:15:00,
2013-11-19 16:20:00,81.1,72.0,29.84,ESE,104,1.0,1.0,74,0.00,,,0.00,Wunderground v.1.15,2013-11-19 21:20:00,
2013-11-19 16:25:00,80.6,71.9,29.84,ENE,76,1.0,4.0,75,0.00,,,0.00,Wunderground v.1.15,2013-11-19 21:25:00,
2013-11-19 16:30:00,79.7,72.6,29.84,South,191,2.0,2.0,79,0.00,,,0.00,Wunderground v.1.15,2013-11-19 21:30:00,
2013-11-19 16:35:00,79.1,72.8,29.85,SE,124,2.0,6.0,81,0.00,,,0.00,Wunderground v.1.15,2013-11-19 21:35:00,
2013-11-19 16:40:00,78.6,72.6,29.85,ESE,118,2.0,2.0,82,0.00,,,0.00,Wunderground v.1.15,2013-11-19 21:40:00,
2013-11-19 16:45:00,78.1,72.2,29.85,East,99,2.0,4.0,82,0.00,,,0.00,Wunderground v.1.15,2013-11-19 21:45:00,
2013-11-19 16:50:00,77.4,71.5,29.85,SSE,162,2.0,2.0,82,0.00,,,0.00,Wunderground v.1.15,2013-11-19 21:50:00,
2013-11-19 16:55:00,77.0,71.4,29.85,West,278,2.0,6.0,83,0.00,,,0.00,Wunderground v.1.15,2013-11-19 21:55:00,
2013-11-19 17:00:00,76.9,71.0,29.85,West,281,1.0,1.0,82,0.00,,,0.00,Wunderground v.1.15,2013-11-19 22:00:00,
2013-11-19 17:05:00,76.7,70.8,29.85,NE,34,1.0,1.0,82,0.00,,,0.00,Wunderground v.1.15,2013-11-19 22:05:00,
2013-11-19 17:10:00,76.7,70.8,29.86,North,2,1.0,3.0,82,0.00,,,0.00,Wunderground v.1.15,2013-11-19 22:10:00,
2013-11-19 17:15:00,76.4,70.1,29.86,NW,323,1.0,3.0,81,0.00,,,0.00,Wunderground v.1.15,2013-11-19 22:15:00,
2013-11-19 17:25:00,75.9,70.0,29.86,WSW,250,1.0,1.0,82,0.00,,,0.00,Wunderground v.1.15,2013-11-19 22:25:00,
2013-11-19 17:30:00,75.7,69.8,29.86,WSW,258,0.0,2.0,82,0.00,,,0.00,Wunderground v.1.15,2013-11-19 22:30:00,
2013-11-19 17:35:00,75.6,70.1,29.87,West,276,1.0,13.0,83,0.00,,,0.00,Wunderground v.1.15,2013-11-19 22:35:00,
2013-11-19 17:40:00,75.5,70.3,29.87,SW,231,1.0,1.0,84,0.00,,,0.00,Wunderground v.1.15,2013-11-19 22:40:00,
2013-11-19 17:45:00,75.5,70.3,29.87,NNE,32,1.0,13.0,84,0.00,,,0.00,Wunderground v.1.15,2013-11-19 22:45:00,
2013-11-19 17:50:00,75.5,70.3,29.87,NNE,21,1.0,1.0,84,0.00,,,0.00,Wunderground v.1.15,2013-11-19 22:50:00,
2013-11-19 17:55:00,75.4,70.2,29.88,NE,39,1.0,13.0,84,0.00,,,0.00,Wunderground v.1.15,2013-11-19 22:55:00,
2013-11-19 18:00:00,75.5,70.3,29.87,NNW,347,0.0,1.0,84,0.00,,,0.00,Wunderground v.1.15,2013-11-19 23:00:00,
2013-11-19 18:10:00,75.4,70.6,29.87,NNW,342,0.0,0.0,85,0.00,,,0.00,Wunderground v.1.15,2013-11-19 23:10:00,
2013-11-19 18:15:00,75.4,70.6,29.87,WNW,294,1.0,1.0,85,0.00,,,0.00,Wunderground v.1.15,2013-11-19 23:15:00,
2013-11-19 18:20:00,75.4,70.6,29.87,North,352,1.0,1.0,85,0.00,,,0.00,Wunderground v.1.15,2013-11-19 23:20:00,
2013-11-19 18:25:00,75.2,70.4,29.87,North,353,0.0,1.0,85,0.00,,,0.00,Wunderground v.1.15,2013-11-19 23:25:00,
2013-11-19 18:30:00,75.1,70.3,29.87,NW,326,0.0,2.0,85,0.00,,,0.00,Wunderground v.1.15,2013-11-19 23:30:00,
2013-11-19 18:35:00,75.0,70.2,29.87,North,8,1.0,5.0,85,0.00,,,0.00,Wunderground v.1.15,2013-11-19 23:35:00,
2013-11-19 18:40:00,75.0,70.2,29.88,NNW,343,1.0,1.0,85,0.00,,,0.00,Wunderground v.1.15,2013-11-19 23:40:00,
2013-11-19 18:45:00,74.9,70.1,29.88,NE,54,0.0,5.0,85,0.00,,,0.00,Wunderground v.1.15,2013-11-19 23:45:00,
2013-11-19 18:50:00,74.9,70.4,29.88,NNE,23,0.0,5.0,86,0.00,,,0.00,Wunderground v.1.15,2013-11-19 23:50:00,
2013-11-19 18:55:00,75.0,70.5,29.88,NE,44,1.0,5.0,86,0.00,,,0.00,Wunderground v.1.15,2013-11-19 23:55:00,
2013-11-19 19:00:00,75.0,70.9,29.89,North,8,1.0,1.0,87,0.00,,,0.00,Wunderground v.1.15,2013-11-20 00:00:00,
2013-11-19 19:05:00,75.0,70.9,29.89,NE,34,0.0,1.0,87,0.00,,,0.00,Wunderground v.1.15,2013-11-20 00:05:00,
2013-11-19 19:10:00,75.0,70.9,29.89,East,82,0.0,0.0,87,0.00,,,0.00,Wunderground v.1.15,2013-11-20 00:10:00,
2013-11-19 19:15:00,74.9,71.1,29.89,WNW,291,0.0,1.0,88,0.00,,,0.00,Wunderground v.1.15,2013-11-20 00:15:00,
2013-11-19 19:20:00,74.8,71.0,29.89,WNW,294,0.0,1.0,88,0.00,,,0.00,Wunderground v.1.15,2013-11-20 00:20:00,
2013-11-19 19:25:00,74.7,70.9,29.89,West,268,0.0,1.0,88,0.00,,,0.00,Wunderground v.1.15,2013-11-20 00:25:00,
2013-11-19 19:30:00,74.6,70.8,29.89,WNW,302,0.0,0.0,88,0.00,,,0.00,Wunderground v.1.15,2013-11-20 00:30:00,
2013-11-19 19:35:00,74.6,70.8,29.90,North,350,0.0,1.0,88,0.00,,,0.00,Wunderground v.1.15,2013-11-20 00:35:00,
2013-11-19 19:40:00,74.6,70.8,29.90,North,350,0.0,5.0,88,0.00,,,0.00,Wunderground v.1.15,2013-11-20 00:40:00,
2013-11-19 19:45:00,74.5,70.7,29.90,WNW,284,0.0,5.0,88,0.00,,,0.00,Wunderground v.1.15,2013-11-20 00:45:00,
2013-11-19 19:50:00,74.4,70.6,29.90,WNW,284,1.0,1.0,88,0.00,,,0.00,Wunderground v.1.15,2013-11-20 00:50:00,
2013-11-19 19:55:00,74.4,70.6,29.90,WNW,283,1.0,5.0,88,0.00,,,0.00,Wunderground v.1.15,2013-11-20 00:55:00,
2013-11-19 20:00:00,74.3,70.5,29.90,WNW,283,0.0,0.0,88,0.00,,,0.00,Wunderground v.1.15,2013-11-20 01:00:00,
2013-11-19 20:05:00,74.3,70.8,29.90,WNW,283,0.0,0.0,89,0.00,,,0.00,Wunderground v.1.15,2013-11-20 01:05:00,
2013-11-19 20:10:00,74.2,70.7,29.90,WNW,283,0.0,0.0,89,0.00,,,0.00,Wunderground v.1.15,2013-11-20 01:10:00,
2013-11-19 20:15:00,74.1,70.6,29.90,WNW,283,0.0,0.0,89,0.00,,,0.00,Wunderground v.1.15,2013-11-20 01:15:00,
2013-11-19 20:20:00,74.0,70.6,29.90,WNW,283,0.0,0.0,89,0.00,,,0.00,Wunderground v.1.15,2013-11-20 01:20:00,
2013-11-19 20:25:00,73.9,70.5,29.90,WNW,283,0.0,0.0,89,0.00,,,0.00,Wunderground v.1.15,2013-11-20 01:25:00,
2013-11-19 20:30:00,73.8,70.7,29.91,WNW,283,0.0,0.0,90,0.00,,,0.00,Wunderground v.1.15,2013-11-20 01:30:00,
2013-11-19 20:35:00,73.8,70.7,29.91,WNW,283,0.0,2.0,90,0.00,,,0.00,Wunderground v.1.15,2013-11-20 01:35:00,
2013-11-19 20:40:00,73.7,70.6,29.91,WNW,283,0.0,2.0,90,0.00,,,0.00,Wunderground v.1.15,2013-11-20 01:40:00,
2013-11-19 20:45:00,73.8,71.0,29.91,WNW,283,0.0,2.0,91,0.00,,,0.00,Wunderground v.1.15,2013-11-20 01:45:00,
2013-11-19 20:50:00,73.7,70.9,29.91,WNW,283,0.0,2.0,91,0.00,,,0.00,Wunderground v.1.15,2013-11-20 01:50:00,
2013-11-19 20:55:00,73.8,71.0,29.91,WNW,283,0.0,2.0,91,0.00,,,0.00,Wunderground v.1.15,2013-11-20 01:55:00,
2013-11-19 21:00:00,73.8,71.0,29.91,WNW,283,0.0,0.0,91,0.00,,,0.00,Wunderground v.1.15,2013-11-20 02:00:00,
2013-11-19 21:10:00,73.6,70.8,29.91,WNW,283,0.0,0.0,91,0.00,,,0.00,Wunderground v.1.15,2013-11-20 02:10:00,
2013-11-19 21:15:00,73.4,70.6,29.91,WNW,283,0.0,0.0,91,0.00,,,0.00,Wunderground v.1.15,2013-11-20 02:15:00,
2013-11-19 21:20:00,73.5,71.0,29.91,WNW,283,0.0,0.0,92,0.00,,,0.00,Wunderground v.1.15,2013-11-20 02:20:00,
2013-11-19 21:25:00,73.5,71.0,29.92,West,262,0.0,2.0,92,0.00,,,0.00,Wunderground v.1.15,2013-11-20 02:25:00,
2013-11-19 21:30:00,73.5,71.0,29.92,West,266,1.0,3.0,92,0.00,,,0.00,Wunderground v.1.15,2013-11-20 02:30:00,
2013-11-19 21:35:00,73.7,71.2,29.92,West,278,2.0,3.0,92,0.00,,,0.00,Wunderground v.1.15,2013-11-20 02:35:00,
2013-11-19 21:40:00,73.8,71.0,29.92,WNW,287,2.0,2.0,91,0.00,,,0.00,Wunderground v.1.15,2013-11-20 02:40:00,
2013-11-19 21:50:00,73.9,71.1,29.92,West,266,2.0,2.0,91,0.00,,,0.00,Wunderground v.1.15,2013-11-20 02:50:00,
2013-11-19 21:55:00,73.8,71.3,29.92,West,266,1.0,2.0,92,0.00,,,0.00,Wunderground v.1.15,2013-11-20 02:55:00,
2013-11-19 22:00:00,73.8,71.3,29.92,West,266,0.0,0.0,92,0.00,,,0.00,Wunderground v.1.15,2013-11-20 03:00:00,
2013-11-19 22:05:00,73.7,71.2,29.92,West,266,0.0,0.0,92,0.00,,,0.00,Wunderground v.1.15,2013-11-20 03:05:00,
2013-11-19 22:10:00,73.7,71.2,29.92,West,266,0.0,0.0,92,0.00,,,0.00,Wunderground v.1.15,2013-11-20 03:10:00,
2013-11-19 22:15:00,73.6,71.4,29.92,West,266,0.0,0.0,93,0.00,,,0.00,Wunderground v.1.15,2013-11-20 03:15:00,
2013-11-19 22:20:00,73.6,71.4,29.92,West,261,0.0,1.0,93,0.00,,,0.00,Wunderground v.1.15,2013-11-20 03:20:00,
2013-11-19 22:25:00,73.6,71.4,29.92,West,261,0.0,1.0,93,0.00,,,0.00,Wunderground v.1.15,2013-11-20 03:25:00,
2013-11-19 22:30:00,73.5,71.4,29.92,West,262,0.0,0.0,93,0.00,,,0.00,Wunderground v.1.15,2013-11-20 03:30:00,
2013-11-19 22:35:00,73.5,71.4,29.92,West,261,0.0,4.0,93,0.00,,,0.00,Wunderground v.1.15,2013-11-20 03:35:00,
2013-11-19 22:40:00,73.6,71.4,29.92,West,261,0.0,4.0,93,0.00,,,0.00,Wunderground v.1.15,2013-11-20 03:40:00,
2013-11-19 22:45:00,73.6,71.4,29.92,WSW,251,0.0,4.0,93,0.00,,,0.00,Wunderground v.1.15,2013-11-20 03:45:00,
2013-11-19 22:50:00,73.6,71.4,29.92,West,259,0.0,4.0,93,0.00,,,0.00,Wunderground v.1.15,2013-11-20 03:50:00,
2013-11-19 22:55:00,73.6,71.4,29.92,WSW,258,0.0,4.0,93,0.00,,,0.00,Wunderground v.1.15,2013-11-20 03:55:00,
2013-11-19 23:00:00,73.6,71.8,29.92,WSW,243,1.0,1.0,94,0.00,,,0.00,Wunderground v.1.15,2013-11-20 04:00:00,
2013-11-19 23:05:00,73.5,71.4,29.92,WSW,256,1.0,2.0,93,0.00,,,0.00,Wunderground v.1.15,2013-11-20 04:05:00,
2013-11-19 23:10:00,73.5,71.7,29.92,WSW,252,2.0,2.0,94,0.00,,,0.00,Wunderground v.1.15,2013-11-20 04:10:00,
2013-11-19 23:15:00,73.5,71.7,29.92,WSW,258,2.0,4.0,94,0.00,,,0.00,Wunderground v.1.15,2013-11-20 04:15:00,
2013-11-19 23:20:00,73.4,71.6,29.92,WSW,252,2.0,2.0,94,0.00,,,0.00,Wunderground v.1.15,2013-11-20 04:20:00,
2013-11-19 23:25:00,73.3,71.5,29.92,SW,236,2.0,2.0,94,0.00,,,0.00,Wunderground v.1.15,2013-11-20 04:25:00,
2013-11-19 23:30:00,73.2,71.4,29.92,South,176,0.0,0.0,94,0.00,,,0.00,Wunderground v.1.15,2013-11-20 04:30:00,
2013-11-19 23:35:00,73.1,71.3,29.92,South,176,0.0,3.0,94,0.00,,,0.00,Wunderground v.1.15,2013-11-20 04:35:00,
2013-11-19 23:40:00,73.1,71.3,29.91,WSW,241,0.0,3.0,94,0.00,,,0.00,Wunderground v.1.15,2013-11-20 04:40:00,
2013-11-19 23:45:00,73.1,71.6,29.91,WSW,252,0.0,3.0,95,0.00,,,0.00,Wunderground v.1.15,2013-11-20 04:45:00,
2013-11-19 23:50:00,73.0,71.2,29.91,WSW,243,0.0,3.0,94,0.00,,,0.00,Wunderground v.1.15,2013-11-20 04:50:00,
2013-11-19 23:55:00,72.9,71.4,29.91,West,276,0.0,3.0,95,0.00,,,0.00,Wunderground v.1.15,2013-11-20 04:55:00,